Terminal Aerodrome Forecast
Issued by NWS Wilmington, OH

Current Version | Previous Version | Graphics & Text | Print | Product List | Glossary On
Versions: 1 2 3 4 5 6 7 8 9 10 11 12 13 14 15 16
000
FTUS41 KILN 240536
TAFCMH
TAF
KCMH 240536Z 2406/2506 16006KT P6SM VCSH SCT050 OVC080
     FM240800 17007KT P6SM SCT045 BKN120 WS020/21040KT
     FM241400 21012G23KT P6SM SCT035 BKN090
     FM241600 21014G25KT P6SM BKN035
     FM250000 21008KT P6SM BKN070=

USA.gov is the U.S. government's official web portal to all federal, state and local government web resources and services.